sensor_id;sensor_type;location;lat;lon;timestamp;P1;durP1;ratioP1;P2;durP2;ratioP2
19291;SDS011;9779;51.756;7.450;2024-03-22T00:00:53;45.37;;;28.43;;
19291;SDS011;9779;51.756;7.450;2024-03-22T00:03:19;41.13;;;27.53;;
19291;SDS011;9779;51.756;7.450;2024-03-22T00:05:45;44.50;;;28.37;;
19291;SDS011;9779;51.756;7.450;2024-03-22T00:08:10;44.47;;;28.43;;
19291;SDS011;9779;51.756;7.450;2024-03-22T00:10:36;47.00;;;27.20;;
19291;SDS011;9779;51.756;7.450;2024-03-22T00:13:02;42.73;;;28.30;;
19291;SDS011;9779;51.756;7.450;2024-03-22T00:15:27;39.80;;;26.60;;
19291;SDS011;9779;51.756;7.450;2024-03-22T00:17:53;39.30;;;26.27;;
19291;SDS011;9779;51.756;7.450;2024-03-22T00:20:18;44.53;;;27.63;;
19291;SDS011;9779;51.756;7.450;2024-03-22T00:22:44;35.80;;;25.87;;
19291;SDS011;9779;51.756;7.450;2024-03-22T00:25:10;39.37;;;26.20;;
19291;SDS011;9779;51.756;7.450;2024-03-22T00:27:36;36.57;;;25.43;;
19291;SDS011;9779;51.756;7.450;2024-03-22T00:30:01;38.40;;;24.77;;
19291;SDS011;9779;51.756;7.450;2024-03-22T00:32:27;39.70;;;26.10;;
19291;SDS011;9779;51.756;7.450;2024-03-22T00:34:52;40.43;;;26.70;;
19291;SDS011;9779;51.756;7.450;2024-03-22T00:37:18;33.37;;;24.17;;
19291;SDS011;9779;51.756;7.450;2024-03-22T00:39:44;43.20;;;26.20;;
19291;SDS011;9779;51.756;7.450;2024-03-22T00:42:09;44.77;;;25.93;;
19291;SDS011;9779;51.756;7.450;2024-03-22T00:44:35;44.27;;;25.70;;
19291;SDS011;9779;51.756;7.450;2024-03-22T00:47:00;41.73;;;25.37;;
19291;SDS011;9779;51.756;7.450;2024-03-22T00:49:28;39.93;;;25.63;;
19291;SDS011;9779;51.756;7.450;2024-03-22T00:51:54;41.80;;;25.20;;
19291;SDS011;9779;51.756;7.450;2024-03-22T00:54:21;38.90;;;25.27;;
19291;SDS011;9779;51.756;7.450;2024-03-22T00:56:47;39.43;;;26.17;;
19291;SDS011;9779;51.756;7.450;2024-03-22T00:59:13;35.80;;;25.70;;
19291;SDS011;9779;51.756;7.450;2024-03-22T01:01:38;39.40;;;25.00;;
19291;SDS011;9779;51.756;7.450;2024-03-22T01:04:04;40.00;;;25.73;;
19291;SDS011;9779;51.756;7.450;2024-03-22T01:06:29;37.40;;;23.73;;
19291;SDS011;9779;51.756;7.450;2024-03-22T01:08:55;39.63;;;23.33;;
19291;SDS011;9779;51.756;7.450;2024-03-22T01:11:20;36.97;;;23.67;;
19291;SDS011;9779;51.756;7.450;2024-03-22T01:13:46;40.97;;;25.57;;
19291;SDS011;9779;51.756;7.450;2024-03-22T01:16:12;40.00;;;25.23;;
19291;SDS011;9779;51.756;7.450;2024-03-22T01:18:37;35.87;;;24.17;;
19291;SDS011;9779;51.756;7.450;2024-03-22T01:21:03;42.93;;;24.93;;
19291;SDS011;9779;51.756;7.450;2024-03-22T01:23:30;38.47;;;22.87;;
19291;SDS011;9779;51.756;7.450;2024-03-22T01:25:56;37.57;;;23.97;;
19291;SDS011;9779;51.756;7.450;2024-03-22T01:28:21;32.43;;;22.53;;
19291;SDS011;9779;51.756;7.450;2024-03-22T01:30:47;38.07;;;23.40;;
19291;SDS011;9779;51.756;7.450;2024-03-22T01:33:13;37.17;;;24.10;;
19291;SDS011;9779;51.756;7.450;2024-03-22T01:35:38;32.37;;;21.87;;
19291;SDS011;9779;51.756;7.450;2024-03-22T01:38:04;37.43;;;23.00;;
19291;SDS011;9779;51.756;7.450;2024-03-22T01:40:29;37.10;;;23.63;;
19291;SDS011;9779;51.756;7.450;2024-03-22T01:42:56;32.30;;;20.80;;
19291;SDS011;9779;51.756;7.450;2024-03-22T01:45:22;33.60;;;21.30;;
19291;SDS011;9779;51.756;7.450;2024-03-22T01:47:50;30.60;;;21.97;;
19291;SDS011;9779;51.756;7.450;2024-03-22T01:50:20;35.43;;;21.87;;
19291;SDS011;9779;51.756;7.450;2024-03-22T01:52:46;34.10;;;20.70;;
19291;SDS011;9779;51.756;7.450;2024-03-22T01:55:12;33.10;;;21.27;;
19291;SDS011;9779;51.756;7.450;2024-03-22T01:57:38;36.20;;;20.93;;
19291;SDS011;9779;51.756;7.450;2024-03-22T02:00:04;30.23;;;20.83;;
19291;SDS011;9779;51.756;7.450;2024-03-22T02:02:31;34.53;;;20.87;;
19291;SDS011;9779;51.756;7.450;2024-03-22T02:04:56;31.97;;;20.77;;
19291;SDS011;9779;51.756;7.450;2024-03-22T02:07:22;33.23;;;21.37;;
19291;SDS011;9779;51.756;7.450;2024-03-22T02:09:48;34.77;;;21.33;;
19291;SDS011;9779;51.756;7.450;2024-03-22T02:12:14;32.30;;;21.73;;
19291;SDS011;9779;51.756;7.450;2024-03-22T02:14:40;38.73;;;20.63;;
19291;SDS011;9779;51.756;7.450;2024-03-22T02:17:06;36.20;;;21.03;;
19291;SDS011;9779;51.756;7.450;2024-03-22T02:19:32;36.23;;;20.57;;
19291;SDS011;9779;51.756;7.450;2024-03-22T02:21:57;36.23;;;22.37;;
19291;SDS011;9779;51.756;7.450;2024-03-22T02:24:23;31.67;;;21.10;;
19291;SDS011;9779;51.756;7.450;2024-03-22T02:26:49;32.40;;;19.30;;
19291;SDS011;9779;51.756;7.450;2024-03-22T02:29:14;36.50;;;19.53;;
19291;SDS011;9779;51.756;7.450;2024-03-22T02:31:40;35.00;;;20.03;;
19291;SDS011;9779;51.756;7.450;2024-03-22T02:34:06;40.50;;;21.07;;
19291;SDS011;9779;51.756;7.450;2024-03-22T02:36:31;34.70;;;21.30;;
19291;SDS011;9779;51.756;7.450;2024-03-22T02:38:57;32.93;;;20.37;;
19291;SDS011;9779;51.756;7.450;2024-03-22T02:41:22;37.70;;;19.87;;
19291;SDS011;9779;51.756;7.450;2024-03-22T02:43:48;32.53;;;20.73;;
19291;SDS011;9779;51.756;7.450;2024-03-22T02:46:13;31.63;;;19.47;;
19291;SDS011;9779;51.756;7.450;2024-03-22T02:48:39;35.83;;;21.37;;
19291;SDS011;9779;51.756;7.450;2024-03-22T02:51:05;30.03;;;19.83;;
19291;SDS011;9779;51.756;7.450;2024-03-22T02:53:31;30.10;;;19.53;;
19291;SDS011;9779;51.756;7.450;2024-03-22T02:55:59;34.67;;;20.90;;
19291;SDS011;9779;51.756;7.450;2024-03-22T02:58:25;38.47;;;20.37;;
19291;SDS011;9779;51.756;7.450;2024-03-22T03:00:50;32.90;;;20.60;;
19291;SDS011;9779;51.756;7.450;2024-03-22T03:03:16;32.53;;;19.77;;
19291;SDS011;9779;51.756;7.450;2024-03-22T03:05:42;37.90;;;20.03;;
19291;SDS011;9779;51.756;7.450;2024-03-22T03:08:09;32.27;;;20.00;;
19291;SDS011;9779;51.756;7.450;2024-03-22T03:10:35;33.20;;;20.77;;
19291;SDS011;9779;51.756;7.450;2024-03-22T03:13:00;37.97;;;19.73;;
19291;SDS011;9779;51.756;7.450;2024-03-22T03:15:26;31.93;;;20.30;;
19291;SDS011;9779;51.756;7.450;2024-03-22T03:17:52;38.13;;;19.77;;
19291;SDS011;9779;51.756;7.450;2024-03-22T03:20:17;33.80;;;20.07;;
19291;SDS011;9779;51.756;7.450;2024-03-22T03:22:43;42.23;;;19.67;;
19291;SDS011;9779;51.756;7.450;2024-03-22T03:25:09;30.03;;;19.40;;
19291;SDS011;9779;51.756;7.450;2024-03-22T03:27:34;37.83;;;19.60;;
19291;SDS011;9779;51.756;7.450;2024-03-22T03:30:00;37.63;;;19.83;;
19291;SDS011;9779;51.756;7.450;2024-03-22T03:32:26;27.60;;;19.23;;
19291;SDS011;9779;51.756;7.450;2024-03-22T03:34:53;37.93;;;20.30;;
19291;SDS011;9779;51.756;7.450;2024-03-22T03:37:18;38.13;;;21.23;;
19291;SDS011;9779;51.756;7.450;2024-03-22T03:39:44;32.30;;;19.73;;
19291;SDS011;9779;51.756;7.450;2024-03-22T03:42:10;39.17;;;20.83;;
19291;SDS011;9779;51.756;7.450;2024-03-22T03:44:36;34.93;;;19.93;;
19291;SDS011;9779;51.756;7.450;2024-03-22T03:47:01;31.77;;;19.80;;
19291;SDS011;9779;51.756;7.450;2024-03-22T03:49:27;30.67;;;20.37;;
19291;SDS011;9779;51.756;7.450;2024-03-22T03:51:53;31.77;;;20.13;;
19291;SDS011;9779;51.756;7.450;2024-03-22T03:54:19;32.83;;;20.60;;
19291;SDS011;9779;51.756;7.450;2024-03-22T03:56:44;36.33;;;19.20;;
19291;SDS011;9779;51.756;7.450;2024-03-22T03:59:10;41.87;;;20.40;;
19291;SDS011;9779;51.756;7.450;2024-03-22T04:01:36;30.87;;;18.77;;
19291;SDS011;9779;51.756;7.450;2024-03-22T04:04:02;34.70;;;20.20;;
19291;SDS011;9779;51.756;7.450;2024-03-22T04:06:28;42.23;;;21.13;;
19291;SDS011;9779;51.756;7.450;2024-03-22T04:08:54;34.53;;;21.60;;
19291;SDS011;9779;51.756;7.450;2024-03-22T04:11:19;32.93;;;19.80;;
19291;SDS011;9779;51.756;7.450;2024-03-22T04:13:45;38.00;;;21.77;;
19291;SDS011;9779;51.756;7.450;2024-03-22T04:16:12;34.43;;;21.03;;
19291;SDS011;9779;51.756;7.450;2024-03-22T04:18:38;31.83;;;20.13;;
19291;SDS011;9779;51.756;7.450;2024-03-22T04:21:04;33.80;;;20.50;;
19291;SDS011;9779;51.756;7.450;2024-03-22T04:23:29;31.70;;;19.43;;
19291;SDS011;9779;51.756;7.450;2024-03-22T04:25:55;37.40;;;20.77;;
19291;SDS011;9779;51.756;7.450;2024-03-22T04:28:23;39.00;;;21.80;;
19291;SDS011;9779;51.756;7.450;2024-03-22T04:33:24;32.53;;;20.63;;
19291;SDS011;9779;51.756;7.450;2024-03-22T04:35:50;39.53;;;21.83;;
19291;SDS011;9779;51.756;7.450;2024-03-22T04:38:16;30.87;;;20.80;;
19291;SDS011;9779;51.756;7.450;2024-03-22T04:40:42;36.07;;;19.73;;
19291;SDS011;9779;51.756;7.450;2024-03-22T04:43:08;31.17;;;20.63;;
19291;SDS011;9779;51.756;7.450;2024-03-22T04:45:33;34.00;;;20.17;;
19291;SDS011;9779;51.756;7.450;2024-03-22T04:48:00;33.93;;;20.83;;
19291;SDS011;9779;51.756;7.450;2024-03-22T04:50:27;29.13;;;19.77;;
19291;SDS011;9779;51.756;7.450;2024-03-22T04:52:53;34.43;;;19.53;;
19291;SDS011;9779;51.756;7.450;2024-03-22T04:55:20;34.73;;;19.97;;
19291;SDS011;9779;51.756;7.450;2024-03-22T04:57:46;32.67;;;20.40;;
19291;SDS011;9779;51.756;7.450;2024-03-22T05:00:11;31.90;;;20.60;;
19291;SDS011;9779;51.756;7.450;2024-03-22T05:02:37;33.90;;;19.63;;
19291;SDS011;9779;51.756;7.450;2024-03-22T05:05:03;29.53;;;19.70;;
19291;SDS011;9779;51.756;7.450;2024-03-22T05:07:29;33.17;;;19.63;;
19291;SDS011;9779;51.756;7.450;2024-03-22T05:09:54;28.70;;;19.50;;
19291;SDS011;9779;51.756;7.450;2024-03-22T05:12:20;29.50;;;19.30;;
19291;SDS011;9779;51.756;7.450;2024-03-22T05:14:46;37.97;;;20.80;;
19291;SDS011;9779;51.756;7.450;2024-03-22T05:17:11;29.87;;;19.77;;
19291;SDS011;9779;51.756;7.450;2024-03-22T05:19:37;30.03;;;19.73;;
19291;SDS011;9779;51.756;7.450;2024-03-22T05:22:03;34.37;;;18.90;;
19291;SDS011;9779;51.756;7.450;2024-03-22T05:24:28;34.67;;;18.80;;
19291;SDS011;9779;51.756;7.450;2024-03-22T05:26:54;33.80;;;19.53;;
19291;SDS011;9779;51.756;7.450;2024-03-22T05:29:20;31.67;;;18.63;;
19291;SDS011;9779;51.756;7.450;2024-03-22T05:31:48;29.80;;;19.47;;
19291;SDS011;9779;51.756;7.450;2024-03-22T05:34:14;29.73;;;18.57;;
19291;SDS011;9779;51.756;7.450;2024-03-22T05:36:41;31.13;;;18.90;;
19291;SDS011;9779;51.756;7.450;2024-03-22T05:39:07;30.90;;;18.43;;
19291;SDS011;9779;51.756;7.450;2024-03-22T05:41:33;32.90;;;19.30;;
19291;SDS011;9779;51.756;7.450;2024-03-22T05:43:59;30.70;;;17.90;;
19291;SDS011;9779;51.756;7.450;2024-03-22T05:46:25;28.43;;;18.67;;
19291;SDS011;9779;51.756;7.450;2024-03-22T05:48:51;30.37;;;18.40;;
19291;SDS011;9779;51.756;7.450;2024-03-22T05:51:17;28.23;;;17.57;;
19291;SDS011;9779;51.756;7.450;2024-03-22T05:53:43;26.97;;;17.47;;
19291;SDS011;9779;51.756;7.450;2024-03-22T05:56:10;32.87;;;18.33;;
19291;SDS011;9779;51.756;7.450;2024-03-22T05:58:35;22.03;;;17.27;;
19291;SDS011;9779;51.756;7.450;2024-03-22T06:01:02;28.03;;;17.27;;
19291;SDS011;9779;51.756;7.450;2024-03-22T06:03:28;25.33;;;16.73;;
19291;SDS011;9779;51.756;7.450;2024-03-22T06:05:54;25.97;;;16.73;;
19291;SDS011;9779;51.756;7.450;2024-03-22T06:08:24;22.70;;;17.00;;
19291;SDS011;9779;51.756;7.450;2024-03-22T06:10:50;33.37;;;17.73;;
19291;SDS011;9779;51.756;7.450;2024-03-22T06:13:16;30.37;;;17.57;;
19291;SDS011;9779;51.756;7.450;2024-03-22T06:15:43;27.73;;;17.63;;
19291;SDS011;9779;51.756;7.450;2024-03-22T06:18:12;29.83;;;18.17;;
19291;SDS011;9779;51.756;7.450;2024-03-22T06:20:38;27.37;;;17.63;;
19291;SDS011;9779;51.756;7.450;2024-03-22T06:23:03;35.03;;;18.47;;
19291;SDS011;9779;51.756;7.450;2024-03-22T06:25:29;30.57;;;17.13;;
19291;SDS011;9779;51.756;7.450;2024-03-22T06:27:54;37.97;;;18.57;;
19291;SDS011;9779;51.756;7.450;2024-03-22T06:30:20;26.10;;;17.43;;
19291;SDS011;9779;51.756;7.450;2024-03-22T06:32:46;28.93;;;16.80;;
19291;SDS011;9779;51.756;7.450;2024-03-22T06:35:11;26.10;;;17.57;;
19291;SDS011;9779;51.756;7.450;2024-03-22T06:37:38;27.73;;;17.07;;
19291;SDS011;9779;51.756;7.450;2024-03-22T06:40:05;21.43;;;15.83;;
19291;SDS011;9779;51.756;7.450;2024-03-22T06:42:32;28.07;;;15.90;;
19291;SDS011;9779;51.756;7.450;2024-03-22T06:44:57;29.23;;;16.50;;
19291;SDS011;9779;51.756;7.450;2024-03-22T06:47:23;26.07;;;16.13;;
19291;SDS011;9779;51.756;7.450;2024-03-22T06:49:49;22.23;;;16.20;;
19291;SDS011;9779;51.756;7.450;2024-03-22T06:52:14;23.70;;;15.87;;
19291;SDS011;9779;51.756;7.450;2024-03-22T06:54:40;24.43;;;16.00;;
19291;SDS011;9779;51.756;7.450;2024-03-22T06:57:06;19.57;;;16.17;;
19291;SDS011;9779;51.756;7.450;2024-03-22T06:59:32;30.23;;;15.87;;
19291;SDS011;9779;51.756;7.450;2024-03-22T07:01:57;23.97;;;16.03;;
19291;SDS011;9779;51.756;7.450;2024-03-22T07:04:26;21.47;;;14.53;;
19291;SDS011;9779;51.756;7.450;2024-03-22T07:06:51;21.37;;;15.40;;
19291;SDS011;9779;51.756;7.450;2024-03-22T07:09:17;27.53;;;15.03;;
19291;SDS011;9779;51.756;7.450;2024-03-22T07:11:43;22.27;;;14.83;;
19291;SDS011;9779;51.756;7.450;2024-03-22T07:14:09;19.93;;;14.43;;
19291;SDS011;9779;51.756;7.450;2024-03-22T07:16:34;23.20;;;16.07;;
19291;SDS011;9779;51.756;7.450;2024-03-22T07:19:02;21.93;;;15.17;;
19291;SDS011;9779;51.756;7.450;2024-03-22T07:21:28;24.87;;;15.47;;
19291;SDS011;9779;51.756;7.450;2024-03-22T07:23:54;22.23;;;15.60;;
19291;SDS011;9779;51.756;7.450;2024-03-22T07:26:20;18.60;;;13.67;;
19291;SDS011;9779;51.756;7.450;2024-03-22T07:28:45;23.63;;;15.27;;
19291;SDS011;9779;51.756;7.450;2024-03-22T07:31:11;20.93;;;14.07;;
19291;SDS011;9779;51.756;7.450;2024-03-22T07:33:37;22.57;;;14.77;;
19291;SDS011;9779;51.756;7.450;2024-03-22T07:36:04;19.43;;;14.33;;
19291;SDS011;9779;51.756;7.450;2024-03-22T07:38:30;19.77;;;14.23;;
19291;SDS011;9779;51.756;7.450;2024-03-22T07:40:56;28.23;;;15.73;;
19291;SDS011;9779;51.756;7.450;2024-03-22T07:43:22;17.93;;;14.23;;
19291;SDS011;9779;51.756;7.450;2024-03-22T07:45:48;17.83;;;14.17;;
19291;SDS011;9779;51.756;7.450;2024-03-22T07:48:14;21.53;;;14.67;;
19291;SDS011;9779;51.756;7.450;2024-03-22T07:50:40;19.13;;;14.37;;
19291;SDS011;9779;51.756;7.450;2024-03-22T07:53:06;18.93;;;13.90;;
19291;SDS011;9779;51.756;7.450;2024-03-22T07:55:33;18.40;;;14.30;;
19291;SDS011;9779;51.756;7.450;2024-03-22T07:57:59;19.60;;;13.80;;
19291;SDS011;9779;51.756;7.450;2024-03-22T08:00:25;17.77;;;14.57;;
19291;SDS011;9779;51.756;7.450;2024-03-22T08:02:51;21.00;;;14.07;;
19291;SDS011;9779;51.756;7.450;2024-03-22T08:05:18;29.00;;;13.93;;
19291;SDS011;9779;51.756;7.450;2024-03-22T08:07:44;21.80;;;15.07;;
19291;SDS011;9779;51.756;7.450;2024-03-22T08:10:10;22.00;;;15.17;;
19291;SDS011;9779;51.756;7.450;2024-03-22T08:12:36;17.70;;;13.87;;
19291;SDS011;9779;51.756;7.450;2024-03-22T08:15:02;24.20;;;15.03;;
19291;SDS011;9779;51.756;7.450;2024-03-22T08:17:27;16.40;;;13.23;;
19291;SDS011;9779;51.756;7.450;2024-03-22T08:19:54;16.13;;;12.70;;
19291;SDS011;9779;51.756;7.450;2024-03-22T08:22:20;24.13;;;13.37;;
19291;SDS011;9779;51.756;7.450;2024-03-22T08:24:46;17.17;;;12.67;;
19291;SDS011;9779;51.756;7.450;2024-03-22T08:27:11;15.53;;;11.80;;
19291;SDS011;9779;51.756;7.450;2024-03-22T08:29:37;15.47;;;12.50;;
19291;SDS011;9779;51.756;7.450;2024-03-22T08:32:05;16.47;;;11.87;;
19291;SDS011;9779;51.756;7.450;2024-03-22T08:34:31;13.40;;;12.10;;
19291;SDS011;9779;51.756;7.450;2024-03-22T08:36:59;13.77;;;12.03;;
19291;SDS011;9779;51.756;7.450;2024-03-22T08:39:25;16.40;;;11.70;;
19291;SDS011;9779;51.756;7.450;2024-03-22T08:41:53;15.97;;;12.43;;
19291;SDS011;9779;51.756;7.450;2024-03-22T08:44:20;15.03;;;12.17;;
19291;SDS011;9779;51.756;7.450;2024-03-22T08:46:45;15.00;;;11.37;;
19291;SDS011;9779;51.756;7.450;2024-03-22T08:49:14;15.10;;;11.90;;
19291;SDS011;9779;51.756;7.450;2024-03-22T08:51:40;13.97;;;11.10;;
19291;SDS011;9779;51.756;7.450;2024-03-22T08:54:06;13.73;;;12.30;;
19291;SDS011;9779;51.756;7.450;2024-03-22T08:56:32;14.93;;;10.93;;
19291;SDS011;9779;51.756;7.450;2024-03-22T08:58:58;12.03;;;10.90;;
19291;SDS011;9779;51.756;7.450;2024-03-22T09:01:24;15.87;;;11.60;;
19291;SDS011;9779;51.756;7.450;2024-03-22T09:03:50;11.97;;;10.90;;
19291;SDS011;9779;51.756;7.450;2024-03-22T09:06:16;13.17;;;11.87;;
19291;SDS011;9779;51.756;7.450;2024-03-22T09:08:41;17.40;;;11.63;;
19291;SDS011;9779;51.756;7.450;2024-03-22T09:11:07;12.07;;;10.97;;
19291;SDS011;9779;51.756;7.450;2024-03-22T09:13:33;12.63;;;11.00;;
19291;SDS011;9779;51.756;7.450;2024-03-22T09:16:00;12.27;;;10.77;;
19291;SDS011;9779;51.756;7.450;2024-03-22T09:18:26;17.10;;;11.37;;
19291;SDS011;9779;51.756;7.450;2024-03-22T09:20:53;17.27;;;11.73;;
19291;SDS011;9779;51.756;7.450;2024-03-22T09:23:18;17.13;;;11.73;;
19291;SDS011;9779;51.756;7.450;2024-03-22T09:25:45;13.77;;;11.47;;
19291;SDS011;9779;51.756;7.450;2024-03-22T09:28:12;17.50;;;11.17;;
19291;SDS011;9779;51.756;7.450;2024-03-22T09:30:38;13.47;;;11.70;;
19291;SDS011;9779;51.756;7.450;2024-03-22T09:33:05;11.43;;;10.17;;
19291;SDS011;9779;51.756;7.450;2024-03-22T09:35:34;16.73;;;10.73;;
19291;SDS011;9779;51.756;7.450;2024-03-22T09:38:00;16.27;;;10.87;;
19291;SDS011;9779;51.756;7.450;2024-03-22T09:40:27;14.17;;;10.80;;
19291;SDS011;9779;51.756;7.450;2024-03-22T09:42:53;13.47;;;11.10;;
19291;SDS011;9779;51.756;7.450;2024-03-22T09:45:24;11.67;;;10.57;;
19291;SDS011;9779;51.756;7.450;2024-03-22T09:47:50;15.77;;;10.13;;
19291;SDS011;9779;51.756;7.450;2024-03-22T09:50:20;12.13;;;10.77;;
19291;SDS011;9779;51.756;7.450;2024-03-22T09:52:46;19.90;;;9.90;;
19291;SDS011;9779;51.756;7.450;2024-03-22T09:55:13;11.13;;;10.03;;
19291;SDS011;9779;51.756;7.450;2024-03-22T09:57:39;12.53;;;10.80;;
19291;SDS011;9779;51.756;7.450;2024-03-22T10:00:06;13.23;;;11.00;;
19291;SDS011;9779;51.756;7.450;2024-03-22T10:02:33;10.00;;;9.00;;
19291;SDS011;9779;51.756;7.450;2024-03-22T10:04:59;11.07;;;9.90;;
19291;SDS011;9779;51.756;7.450;2024-03-22T10:07:25;10.87;;;9.77;;
19291;SDS011;9779;51.756;7.450;2024-03-22T10:09:57;13.30;;;10.27;;
19291;SDS011;9779;51.756;7.450;2024-03-22T10:12:23;15.03;;;10.30;;
19291;SDS011;9779;51.756;7.450;2024-03-22T10:14:50;12.03;;;9.20;;
19291;SDS011;9779;51.756;7.450;2024-03-22T10:17:18;11.00;;;10.00;;
19291;SDS011;9779;51.756;7.450;2024-03-22T10:19:44;14.23;;;9.93;;
19291;SDS011;9779;51.756;7.450;2024-03-22T10:22:09;14.27;;;9.97;;
19291;SDS011;9779;51.756;7.450;2024-03-22T10:24:35;13.53;;;11.00;;
19291;SDS011;9779;51.756;7.450;2024-03-22T10:27:01;13.73;;;10.07;;
19291;SDS011;9779;51.756;7.450;2024-03-22T10:29:26;11.50;;;9.63;;
19291;SDS011;9779;51.756;7.450;2024-03-22T10:31:55;11.90;;;9.73;;
19291;SDS011;9779;51.756;7.450;2024-03-22T10:34:21;13.90;;;9.93;;
19291;SDS011;9779;51.756;7.450;2024-03-22T10:36:49;10.17;;;9.07;;
19291;SDS011;9779;51.756;7.450;2024-03-22T10:39:18;11.00;;;10.00;;
19291;SDS011;9779;51.756;7.450;2024-03-22T10:41:47;12.20;;;10.93;;
19291;SDS011;9779;51.756;7.450;2024-03-22T10:44:13;11.63;;;9.97;;
19291;SDS011;9779;51.756;7.450;2024-03-22T10:46:42;10.93;;;8.70;;
19291;SDS011;9779;51.756;7.450;2024-03-22T10:49:11;12.67;;;9.43;;
19291;SDS011;9779;51.756;7.450;2024-03-22T10:51:41;11.23;;;10.20;;
19291;SDS011;9779;51.756;7.450;2024-03-22T10:54:11;13.33;;;10.57;;
19291;SDS011;9779;51.756;7.450;2024-03-22T10:56:45;11.10;;;10.07;;
19291;SDS011;9779;51.756;7.450;2024-03-22T10:59:14;11.90;;;10.30;;
19291;SDS011;9779;51.756;7.450;2024-03-22T11:01:45;11.33;;;10.23;;
19291;SDS011;9779;51.756;7.450;2024-03-22T11:04:11;9.87;;;8.90;;
19291;SDS011;9779;51.756;7.450;2024-03-22T11:06:37;10.57;;;9.67;;
19291;SDS011;9779;51.756;7.450;2024-03-22T11:09:02;12.37;;;10.60;;
19291;SDS011;9779;51.756;7.450;2024-03-22T11:11:31;11.80;;;10.67;;
19291;SDS011;9779;51.756;7.450;2024-03-22T11:14:02;14.40;;;10.07;;
19291;SDS011;9779;51.756;7.450;2024-03-22T11:16:30;14.00;;;10.93;;
19291;SDS011;9779;51.756;7.450;2024-03-22T11:18:56;19.83;;;11.33;;
19291;SDS011;9779;51.756;7.450;2024-03-22T11:21:21;15.30;;;11.23;;
19291;SDS011;9779;51.756;7.450;2024-03-22T11:23:48;14.90;;;11.50;;
19291;SDS011;9779;51.756;7.450;2024-03-22T11:26:13;11.67;;;10.50;;
19291;SDS011;9779;51.756;7.450;2024-03-22T11:28:39;16.13;;;10.33;;
19291;SDS011;9779;51.756;7.450;2024-03-22T11:31:05;19.50;;;12.67;;
19291;SDS011;9779;51.756;7.450;2024-03-22T11:33:31;12.73;;;11.10;;
19291;SDS011;9779;51.756;7.450;2024-03-22T11:36:00;13.43;;;11.43;;
19291;SDS011;9779;51.756;7.450;2024-03-22T11:38:27;13.03;;;11.60;;
19291;SDS011;9779;51.756;7.450;2024-03-22T11:40:53;13.97;;;12.63;;
19291;SDS011;9779;51.756;7.450;2024-03-22T11:43:22;12.63;;;11.37;;
19291;SDS011;9779;51.756;7.450;2024-03-22T11:45:48;18.80;;;11.53;;
19291;SDS011;9779;51.756;7.450;2024-03-22T11:48:13;12.90;;;11.67;;
19291;SDS011;9779;51.756;7.450;2024-03-22T11:50:39;12.27;;;11.07;;
19291;SDS011;9779;51.756;7.450;2024-03-22T11:53:05;13.80;;;12.40;;
19291;SDS011;9779;51.756;7.450;2024-03-22T11:55:31;14.33;;;12.37;;
19291;SDS011;9779;51.756;7.450;2024-03-22T11:57:57;14.57;;;13.17;;
19291;SDS011;9779;51.756;7.450;2024-03-22T12:00:23;13.73;;;12.53;;
19291;SDS011;9779;51.756;7.450;2024-03-22T12:02:50;15.70;;;13.20;;
19291;SDS011;9779;51.756;7.450;2024-03-22T12:05:20;16.97;;;12.60;;
19291;SDS011;9779;51.756;7.450;2024-03-22T12:07:46;14.77;;;12.90;;
19291;SDS011;9779;51.756;7.450;2024-03-22T12:10:12;13.80;;;12.40;;
19291;SDS011;9779;51.756;7.450;2024-03-22T12:12:38;18.63;;;12.80;;
19291;SDS011;9779;51.756;7.450;2024-03-22T12:15:04;18.50;;;12.70;;
19291;SDS011;9779;51.756;7.450;2024-03-22T12:17:30;16.13;;;12.40;;
19291;SDS011;9779;51.756;7.450;2024-03-22T12:19:55;16.67;;;12.47;;
19291;SDS011;9779;51.756;7.450;2024-03-22T12:22:24;15.97;;;12.83;;
19291;SDS011;9779;51.756;7.450;2024-03-22T12:24:50;13.03;;;11.83;;
19291;SDS011;9779;51.756;7.450;2024-03-22T12:27:16;14.07;;;12.53;;
19291;SDS011;9779;51.756;7.450;2024-03-22T12:29:42;14.17;;;12.17;;
19291;SDS011;9779;51.756;7.450;2024-03-22T12:32:08;14.70;;;12.87;;
19291;SDS011;9779;51.756;7.450;2024-03-22T12:34:35;15.20;;;13.20;;
19291;SDS011;9779;51.756;7.450;2024-03-22T12:37:01;14.70;;;13.17;;
19291;SDS011;9779;51.756;7.450;2024-03-22T12:39:27;16.30;;;12.73;;
19291;SDS011;9779;51.756;7.450;2024-03-22T12:41:53;14.07;;;12.67;;
19291;SDS011;9779;51.756;7.450;2024-03-22T12:44:19;13.90;;;12.70;;
19291;SDS011;9779;51.756;7.450;2024-03-22T12:46:45;17.20;;;13.23;;
19291;SDS011;9779;51.756;7.450;2024-03-22T12:49:11;14.20;;;12.90;;
19291;SDS011;9779;51.756;7.450;2024-03-22T12:51:37;16.67;;;13.43;;
19291;SDS011;9779;51.756;7.450;2024-03-22T12:54:03;16.30;;;13.50;;
19291;SDS011;9779;51.756;7.450;2024-03-22T12:56:29;17.37;;;13.10;;
19291;SDS011;9779;51.756;7.450;2024-03-22T12:58:55;15.87;;;14.03;;
19291;SDS011;9779;51.756;7.450;2024-03-22T13:01:21;13.60;;;12.30;;
19291;SDS011;9779;51.756;7.450;2024-03-22T13:03:47;15.13;;;13.57;;
19291;SDS011;9779;51.756;7.450;2024-03-22T13:06:12;14.97;;;13.57;;
19291;SDS011;9779;51.756;7.450;2024-03-22T13:08:38;14.63;;;13.37;;
19291;SDS011;9779;51.756;7.450;2024-03-22T13:11:04;14.63;;;13.43;;
19291;SDS011;9779;51.756;7.450;2024-03-22T13:13:30;17.23;;;15.27;;
19291;SDS011;9779;51.756;7.450;2024-03-22T13:15:58;13.60;;;12.27;;
19291;SDS011;9779;51.756;7.450;2024-03-22T13:18:27;14.00;;;12.43;;
19291;SDS011;9779;51.756;7.450;2024-03-22T13:20:53;16.30;;;13.07;;
19291;SDS011;9779;51.756;7.450;2024-03-22T13:23:19;15.40;;;13.27;;
19291;SDS011;9779;51.756;7.450;2024-03-22T13:25:44;13.00;;;12.00;;
19291;SDS011;9779;51.756;7.450;2024-03-22T13:28:10;13.60;;;12.33;;
19291;SDS011;9779;51.756;7.450;2024-03-22T13:30:35;13.00;;;12.00;;
19291;SDS011;9779;51.756;7.450;2024-03-22T13:33:02;14.83;;;12.23;;
19291;SDS011;9779;51.756;7.450;2024-03-22T13:35:28;13.47;;;12.23;;
19291;SDS011;9779;51.756;7.450;2024-03-22T13:37:54;14.93;;;13.17;;
19291;SDS011;9779;51.756;7.450;2024-03-22T13:40:20;18.40;;;13.20;;
19291;SDS011;9779;51.756;7.450;2024-03-22T13:42:46;18.40;;;15.17;;
19291;SDS011;9779;51.756;7.450;2024-03-22T13:45:11;16.63;;;13.70;;
19291;SDS011;9779;51.756;7.450;2024-03-22T13:47:37;20.77;;;13.47;;
19291;SDS011;9779;51.756;7.450;2024-03-22T13:50:05;16.30;;;13.23;;
19291;SDS011;9779;51.756;7.450;2024-03-22T13:52:33;14.17;;;12.90;;
19291;SDS011;9779;51.756;7.450;2024-03-22T13:54:59;13.80;;;12.53;;
19291;SDS011;9779;51.756;7.450;2024-03-22T13:57:29;13.93;;;12.67;;
19291;SDS011;9779;51.756;7.450;2024-03-22T13:59:55;14.27;;;12.87;;
19291;SDS011;9779;51.756;7.450;2024-03-22T14:02:21;14.03;;;12.73;;
19291;SDS011;9779;51.756;7.450;2024-03-22T14:04:47;13.53;;;12.43;;
19291;SDS011;9779;51.756;7.450;2024-03-22T14:07:12;13.40;;;12.03;;
19291;SDS011;9779;51.756;7.450;2024-03-22T14:09:38;13.73;;;12.53;;
19291;SDS011;9779;51.756;7.450;2024-03-22T14:12:05;14.77;;;13.23;;
19291;SDS011;9779;51.756;7.450;2024-03-22T14:14:31;13.67;;;12.43;;
19291;SDS011;9779;51.756;7.450;2024-03-22T14:16:57;15.10;;;13.53;;
19291;SDS011;9779;51.756;7.450;2024-03-22T14:19:23;14.07;;;12.83;;
19291;SDS011;9779;51.756;7.450;2024-03-22T14:21:49;15.30;;;13.97;;
19291;SDS011;9779;51.756;7.450;2024-03-22T14:24:15;21.40;;;13.67;;
19291;SDS011;9779;51.756;7.450;2024-03-22T14:26:41;20.13;;;14.77;;
19291;SDS011;9779;51.756;7.450;2024-03-22T14:29:10;15.50;;;14.00;;
19291;SDS011;9779;51.756;7.450;2024-03-22T14:31:38;15.33;;;14.00;;